sensor_id;sensor_type;location;lat;lon;timestamp;P1;durP1;ratioP1;P2;durP2;ratioP2
1721;SDS011;858;53.190;8.596;2023-02-26T00:00:20;3.90;;;1.50;;
1721;SDS011;858;53.190;8.596;2023-02-26T00:02:47;5.18;;;1.90;;
1721;SDS011;858;53.190;8.596;2023-02-26T00:05:14;5.20;;;1.73;;
1721;SDS011;858;53.190;8.596;2023-02-26T00:07:41;3.53;;;1.58;;
1721;SDS011;858;53.190;8.596;2023-02-26T00:10:08;4.43;;;1.40;;
1721;SDS011;858;53.190;8.596;2023-02-26T00:12:36;3.10;;;1.63;;
1721;SDS011;858;53.190;8.596;2023-02-26T00:15:03;5.50;;;1.73;;
1721;SDS011;858;53.190;8.596;2023-02-26T00:17:33;4.05;;;1.80;;
1721;SDS011;858;53.190;8.596;2023-02-26T00:20:03;7.00;;;1.90;;
1721;SDS011;858;53.190;8.596;2023-02-26T00:22:30;6.50;;;1.70;;
1721;SDS011;858;53.190;8.596;2023-02-26T00:24:57;5.50;;;1.70;;
1721;SDS011;858;53.190;8.596;2023-02-26T00:27:23;6.40;;;1.85;;
1721;SDS011;858;53.190;8.596;2023-02-26T00:29:50;4.63;;;1.60;;
1721;SDS011;858;53.190;8.596;2023-02-26T00:32:17;3.38;;;1.30;;
1721;SDS011;858;53.190;8.596;2023-02-26T00:34:46;3.55;;;1.83;;
1721;SDS011;858;53.190;8.596;2023-02-26T00:37:16;3.20;;;1.50;;
1721;SDS011;858;53.190;8.596;2023-02-26T00:39:47;4.15;;;1.83;;
1721;SDS011;858;53.190;8.596;2023-02-26T00:42:16;3.47;;;1.50;;
1721;SDS011;858;53.190;8.596;2023-02-26T00:44:43;4.03;;;1.50;;
1721;SDS011;858;53.190;8.596;2023-02-26T00:47:15;2.83;;;1.50;;
1721;SDS011;858;53.190;8.596;2023-02-26T00:49:50;3.50;;;1.95;;
1721;SDS011;858;53.190;8.596;2023-02-26T00:52:23;3.10;;;1.30;;
1721;SDS011;858;53.190;8.596;2023-02-26T00:54:52;2.90;;;1.60;;
1721;SDS011;858;53.190;8.596;2023-02-26T00:57:20;3.90;;;1.40;;
1721;SDS011;858;53.190;8.596;2023-02-26T00:59:47;5.22;;;1.50;;
1721;SDS011;858;53.190;8.596;2023-02-26T01:02:13;3.70;;;1.40;;
1721;SDS011;858;53.190;8.596;2023-02-26T01:04:40;3.77;;;1.70;;
1721;SDS011;858;53.190;8.596;2023-02-26T01:07:08;3.50;;;1.23;;
1721;SDS011;858;53.190;8.596;2023-02-26T01:09:35;5.03;;;1.25;;
1721;SDS011;858;53.190;8.596;2023-02-26T01:12:03;3.53;;;1.30;;
1721;SDS011;858;53.190;8.596;2023-02-26T01:14:30;4.28;;;1.40;;
1721;SDS011;858;53.190;8.596;2023-02-26T01:16:58;5.20;;;1.42;;
1721;SDS011;858;53.190;8.596;2023-02-26T01:19:28;4.43;;;1.67;;
1721;SDS011;858;53.190;8.596;2023-02-26T01:21:59;3.70;;;1.33;;
1721;SDS011;858;53.190;8.596;2023-02-26T01:24:29;3.70;;;1.50;;
1721;SDS011;858;53.190;8.596;2023-02-26T01:26:56;3.13;;;1.45;;
1721;SDS011;858;53.190;8.596;2023-02-26T01:29:23;3.70;;;1.33;;
1721;SDS011;858;53.190;8.596;2023-02-26T01:31:49;2.58;;;1.45;;
1721;SDS011;858;53.190;8.596;2023-02-26T01:34:18;3.88;;;1.90;;
1721;SDS011;858;53.190;8.596;2023-02-26T01:36:57;6.35;;;1.55;;
1721;SDS011;858;53.190;8.596;2023-02-26T01:39:27;3.22;;;1.63;;
1721;SDS011;858;53.190;8.596;2023-02-26T01:41:58;3.75;;;1.17;;
1721;SDS011;858;53.190;8.596;2023-02-26T01:44:26;5.18;;;1.40;;
1721;SDS011;858;53.190;8.596;2023-02-26T01:46:58;3.15;;;1.50;;
1721;SDS011;858;53.190;8.596;2023-02-26T01:49:26;1.85;;;1.20;;
1721;SDS011;858;53.190;8.596;2023-02-26T01:51:53;2.58;;;1.77;;
1721;SDS011;858;53.190;8.596;2023-02-26T01:54:20;2.92;;;1.50;;
1721;SDS011;858;53.190;8.596;2023-02-26T01:56:48;1.30;;;1.10;;
1721;SDS011;858;53.190;8.596;2023-02-26T01:59:16;5.60;;;1.52;;
1721;SDS011;858;53.190;8.596;2023-02-26T02:01:48;3.33;;;1.30;;
1721;SDS011;858;53.190;8.596;2023-02-26T02:04:14;5.38;;;1.40;;
1721;SDS011;858;53.190;8.596;2023-02-26T02:06:41;11.13;;;1.90;;
1721;SDS011;858;53.190;8.596;2023-02-26T02:09:08;3.65;;;1.33;;
1721;SDS011;858;53.190;8.596;2023-02-26T02:11:35;3.58;;;1.67;;
1721;SDS011;858;53.190;8.596;2023-02-26T02:14:09;4.07;;;1.60;;
1721;SDS011;858;53.190;8.596;2023-02-26T02:16:41;2.63;;;1.20;;
1721;SDS011;858;53.190;8.596;2023-02-26T02:22:00;6.20;;;1.50;;
1721;SDS011;858;53.190;8.596;2023-02-26T02:24:34;4.30;;;1.73;;
1721;SDS011;858;53.190;8.596;2023-02-26T02:27:07;2.20;;;1.10;;
1721;SDS011;858;53.190;8.596;2023-02-26T02:32:31;8.38;;;2.10;;
1721;SDS011;858;53.190;8.596;2023-02-26T02:35:02;4.80;;;1.90;;
1721;SDS011;858;53.190;8.596;2023-02-26T02:37:33;4.22;;;1.35;;
1721;SDS011;858;53.190;8.596;2023-02-26T02:40:03;4.70;;;1.40;;
1721;SDS011;858;53.190;8.596;2023-02-26T02:42:31;2.85;;;1.15;;
1721;SDS011;858;53.190;8.596;2023-02-26T02:45:02;2.73;;;1.10;;
1721;SDS011;858;53.190;8.596;2023-02-26T02:47:31;3.92;;;1.67;;
1721;SDS011;858;53.190;8.596;2023-02-26T02:50:01;4.60;;;1.40;;
1721;SDS011;858;53.190;8.596;2023-02-26T02:52:29;3.08;;;1.50;;
1721;SDS011;858;53.190;8.596;2023-02-26T02:54:57;2.80;;;1.35;;
1721;SDS011;858;53.190;8.596;2023-02-26T02:57:26;5.30;;;1.40;;
1721;SDS011;858;53.190;8.596;2023-02-26T02:59:56;4.50;;;1.52;;
1721;SDS011;858;53.190;8.596;2023-02-26T03:02:25;3.33;;;1.50;;
1721;SDS011;858;53.190;8.596;2023-02-26T03:04:56;5.60;;;1.30;;
1721;SDS011;858;53.190;8.596;2023-02-26T03:07:23;4.22;;;1.60;;
1721;SDS011;858;53.190;8.596;2023-02-26T03:09:49;4.20;;;1.58;;
1721;SDS011;858;53.190;8.596;2023-02-26T03:12:16;2.58;;;1.50;;
1721;SDS011;858;53.190;8.596;2023-02-26T03:14:42;4.00;;;1.40;;
1721;SDS011;858;53.190;8.596;2023-02-26T03:17:13;4.40;;;1.40;;
1721;SDS011;858;53.190;8.596;2023-02-26T03:19:44;2.83;;;1.15;;
1721;SDS011;858;53.190;8.596;2023-02-26T03:22:16;2.80;;;1.40;;
1721;SDS011;858;53.190;8.596;2023-02-26T03:24:45;3.90;;;1.35;;
1721;SDS011;858;53.190;8.596;2023-02-26T03:27:14;3.38;;;1.58;;
1721;SDS011;858;53.190;8.596;2023-02-26T03:29:44;4.10;;;1.58;;
1721;SDS011;858;53.190;8.596;2023-02-26T03:32:13;3.28;;;1.60;;
1721;SDS011;858;53.190;8.596;2023-02-26T03:34:42;3.50;;;1.30;;
1721;SDS011;858;53.190;8.596;2023-02-26T03:37:13;5.03;;;1.80;;
1721;SDS011;858;53.190;8.596;2023-02-26T03:39:45;5.10;;;1.50;;
1721;SDS011;858;53.190;8.596;2023-02-26T03:42:14;1.33;;;1.20;;
1721;SDS011;858;53.190;8.596;2023-02-26T03:44:44;2.67;;;1.30;;
1721;SDS011;858;53.190;8.596;2023-02-26T03:47:12;3.20;;;1.33;;
1721;SDS011;858;53.190;8.596;2023-02-26T03:49:41;3.38;;;1.15;;
1721;SDS011;858;53.190;8.596;2023-02-26T03:52:09;3.08;;;1.50;;
1721;SDS011;858;53.190;8.596;2023-02-26T03:54:37;1.83;;;1.20;;
1721;SDS011;858;53.190;8.596;2023-02-26T03:57:05;2.60;;;1.42;;
1721;SDS011;858;53.190;8.596;2023-02-26T03:59:32;3.08;;;1.40;;
1721;SDS011;858;53.190;8.596;2023-02-26T04:02:00;5.50;;;1.50;;
1721;SDS011;858;53.190;8.596;2023-02-26T04:04:29;2.90;;;1.27;;
1721;SDS011;858;53.190;8.596;2023-02-26T04:06:56;6.33;;;1.70;;
1721;SDS011;858;53.190;8.596;2023-02-26T04:09:23;1.98;;;1.20;;
1721;SDS011;858;53.190;8.596;2023-02-26T04:11:50;3.90;;;1.45;;
1721;SDS011;858;53.190;8.596;2023-02-26T04:14:19;4.15;;;1.60;;
1721;SDS011;858;53.190;8.596;2023-02-26T04:16:45;1.38;;;1.10;;
1721;SDS011;858;53.190;8.596;2023-02-26T04:19:12;3.15;;;1.40;;
1721;SDS011;858;53.190;8.596;2023-02-26T04:21:38;3.00;;;1.80;;
1721;SDS011;858;53.190;8.596;2023-02-26T04:24:04;4.53;;;1.10;;
1721;SDS011;858;53.190;8.596;2023-02-26T04:26:31;3.25;;;1.30;;
1721;SDS011;858;53.190;8.596;2023-02-26T04:28:57;4.60;;;1.30;;
1721;SDS011;858;53.190;8.596;2023-02-26T04:31:25;1.90;;;1.08;;
1721;SDS011;858;53.190;8.596;2023-02-26T04:33:52;3.87;;;1.43;;
1721;SDS011;858;53.190;8.596;2023-02-26T04:36:18;2.72;;;1.40;;
1721;SDS011;858;53.190;8.596;2023-02-26T04:38:45;3.42;;;1.30;;
1721;SDS011;858;53.190;8.596;2023-02-26T04:41:11;2.35;;;1.17;;
1721;SDS011;858;53.190;8.596;2023-02-26T04:43:38;4.20;;;1.58;;
1721;SDS011;858;53.190;8.596;2023-02-26T04:46:04;2.30;;;1.38;;
1721;SDS011;858;53.190;8.596;2023-02-26T04:48:32;5.43;;;1.30;;
1721;SDS011;858;53.190;8.596;2023-02-26T04:50:58;3.90;;;1.60;;
1721;SDS011;858;53.190;8.596;2023-02-26T04:53:25;5.22;;;1.38;;
1721;SDS011;858;53.190;8.596;2023-02-26T04:55:52;4.60;;;1.27;;
1721;SDS011;858;53.190;8.596;2023-02-26T04:58:18;5.30;;;1.48;;
1721;SDS011;858;53.190;8.596;2023-02-26T05:00:46;4.40;;;1.70;;
1721;SDS011;858;53.190;8.596;2023-02-26T05:03:13;5.68;;;1.80;;
1721;SDS011;858;53.190;8.596;2023-02-26T05:05:41;6.10;;;1.90;;
1721;SDS011;858;53.190;8.596;2023-02-26T05:08:08;3.40;;;1.45;;
1721;SDS011;858;53.190;8.596;2023-02-26T05:10:35;2.55;;;1.55;;
1721;SDS011;858;53.190;8.596;2023-02-26T05:13:01;3.10;;;1.40;;
1721;SDS011;858;53.190;8.596;2023-02-26T05:15:28;4.95;;;1.70;;
1721;SDS011;858;53.190;8.596;2023-02-26T05:17:54;2.72;;;1.70;;
1721;SDS011;858;53.190;8.596;2023-02-26T05:20:21;2.20;;;1.33;;
1721;SDS011;858;53.190;8.596;2023-02-26T05:22:48;5.72;;;2.10;;
1721;SDS011;858;53.190;8.596;2023-02-26T05:25:15;2.05;;;1.33;;
1721;SDS011;858;53.190;8.596;2023-02-26T05:27:42;3.67;;;1.63;;
1721;SDS011;858;53.190;8.596;2023-02-26T05:30:09;6.80;;;1.97;;
1721;SDS011;858;53.190;8.596;2023-02-26T05:32:37;6.37;;;1.80;;
1721;SDS011;858;53.190;8.596;2023-02-26T05:35:04;4.90;;;1.80;;
1721;SDS011;858;53.190;8.596;2023-02-26T05:37:30;4.40;;;1.40;;
1721;SDS011;858;53.190;8.596;2023-02-26T05:39:58;3.40;;;1.70;;
1721;SDS011;858;53.190;8.596;2023-02-26T05:42:25;3.45;;;1.67;;
1721;SDS011;858;53.190;8.596;2023-02-26T05:44:52;5.68;;;1.63;;
1721;SDS011;858;53.190;8.596;2023-02-26T05:47:19;4.40;;;2.00;;
1721;SDS011;858;53.190;8.596;2023-02-26T05:49:47;4.03;;;1.60;;
1721;SDS011;858;53.190;8.596;2023-02-26T05:52:14;3.17;;;1.50;;
1721;SDS011;858;53.190;8.596;2023-02-26T05:54:40;4.15;;;1.60;;
1721;SDS011;858;53.190;8.596;2023-02-26T05:57:08;5.50;;;1.80;;
1721;SDS011;858;53.190;8.596;2023-02-26T05:59:34;2.40;;;1.40;;
1721;SDS011;858;53.190;8.596;2023-02-26T06:02:02;4.07;;;1.50;;
1721;SDS011;858;53.190;8.596;2023-02-26T06:04:29;4.75;;;1.60;;
1721;SDS011;858;53.190;8.596;2023-02-26T06:06:55;5.63;;;1.70;;
1721;SDS011;858;53.190;8.596;2023-02-26T06:09:22;6.45;;;2.30;;
1721;SDS011;858;53.190;8.596;2023-02-26T06:11:48;2.63;;;1.70;;
1721;SDS011;858;53.190;8.596;2023-02-26T06:14:19;6.50;;;1.40;;
1721;SDS011;858;53.190;8.596;2023-02-26T06:16:46;2.42;;;1.40;;
1721;SDS011;858;53.190;8.596;2023-02-26T06:19:12;4.72;;;1.60;;
1721;SDS011;858;53.190;8.596;2023-02-26T06:21:39;3.28;;;1.60;;
1721;SDS011;858;53.190;8.596;2023-02-26T06:24:06;2.25;;;1.73;;
1721;SDS011;858;53.190;8.596;2023-02-26T06:26:32;6.35;;;1.75;;
1721;SDS011;858;53.190;8.596;2023-02-26T06:28:59;4.13;;;1.73;;
1721;SDS011;858;53.190;8.596;2023-02-26T06:31:27;4.90;;;1.60;;
1721;SDS011;858;53.190;8.596;2023-02-26T06:33:54;2.38;;;1.70;;
1721;SDS011;858;53.190;8.596;2023-02-26T06:36:20;3.20;;;1.48;;
1721;SDS011;858;53.190;8.596;2023-02-26T06:38:47;3.55;;;1.67;;
1721;SDS011;858;53.190;8.596;2023-02-26T06:41:13;2.95;;;1.52;;
1721;SDS011;858;53.190;8.596;2023-02-26T06:43:40;4.60;;;1.60;;
1721;SDS011;858;53.190;8.596;2023-02-26T06:46:06;3.30;;;1.42;;
1721;SDS011;858;53.190;8.596;2023-02-26T06:48:34;5.95;;;1.60;;
1721;SDS011;858;53.190;8.596;2023-02-26T06:51:01;4.20;;;1.50;;
1721;SDS011;858;53.190;8.596;2023-02-26T06:53:27;2.10;;;1.42;;
1721;SDS011;858;53.190;8.596;2023-02-26T06:55:54;2.85;;;1.90;;
1721;SDS011;858;53.190;8.596;2023-02-26T06:58:20;3.75;;;1.70;;
1721;SDS011;858;53.190;8.596;2023-02-26T07:00:48;3.58;;;1.75;;
1721;SDS011;858;53.190;8.596;2023-02-26T07:03:15;4.60;;;2.50;;
1721;SDS011;858;53.190;8.596;2023-02-26T07:05:43;3.50;;;1.80;;
1721;SDS011;858;53.190;8.596;2023-02-26T07:08:10;2.78;;;1.80;;
1721;SDS011;858;53.190;8.596;2023-02-26T07:10:37;4.78;;;1.60;;
1721;SDS011;858;53.190;8.596;2023-02-26T07:13:04;3.90;;;1.80;;
1721;SDS011;858;53.190;8.596;2023-02-26T07:15:30;5.82;;;2.42;;
1721;SDS011;858;53.190;8.596;2023-02-26T07:17:57;3.65;;;1.80;;
1721;SDS011;858;53.190;8.596;2023-02-26T07:20:25;4.07;;;1.63;;
1721;SDS011;858;53.190;8.596;2023-02-26T07:22:55;8.38;;;2.40;;
1721;SDS011;858;53.190;8.596;2023-02-26T07:25:22;4.85;;;1.90;;
1721;SDS011;858;53.190;8.596;2023-02-26T07:27:50;3.22;;;2.10;;
1721;SDS011;858;53.190;8.596;2023-02-26T07:30:17;5.07;;;2.50;;
1721;SDS011;858;53.190;8.596;2023-02-26T07:32:44;6.22;;;2.50;;
1721;SDS011;858;53.190;8.596;2023-02-26T07:35:10;3.45;;;2.30;;
1721;SDS011;858;53.190;8.596;2023-02-26T07:37:37;6.00;;;3.17;;
1721;SDS011;858;53.190;8.596;2023-02-26T07:40:06;5.85;;;2.60;;
1721;SDS011;858;53.190;8.596;2023-02-26T07:42:33;3.55;;;2.03;;
1721;SDS011;858;53.190;8.596;2023-02-26T07:44:59;6.22;;;2.42;;
1721;SDS011;858;53.190;8.596;2023-02-26T07:47:26;4.55;;;2.20;;
1721;SDS011;858;53.190;8.596;2023-02-26T07:49:54;5.85;;;1.90;;
1721;SDS011;858;53.190;8.596;2023-02-26T07:52:20;5.60;;;2.70;;
1721;SDS011;858;53.190;8.596;2023-02-26T07:54:47;5.50;;;2.20;;
1721;SDS011;858;53.190;8.596;2023-02-26T07:57:15;3.72;;;2.13;;
1721;SDS011;858;53.190;8.596;2023-02-26T07:59:41;3.97;;;2.10;;
1721;SDS011;858;53.190;8.596;2023-02-26T08:02:09;5.33;;;2.10;;
1721;SDS011;858;53.190;8.596;2023-02-26T08:04:35;4.17;;;2.00;;
1721;SDS011;858;53.190;8.596;2023-02-26T08:07:02;3.05;;;2.35;;
1721;SDS011;858;53.190;8.596;2023-02-26T08:09:28;3.78;;;2.00;;
1721;SDS011;858;53.190;8.596;2023-02-26T08:11:55;6.65;;;2.03;;
1721;SDS011;858;53.190;8.596;2023-02-26T08:14:23;6.95;;;1.83;;
1721;SDS011;858;53.190;8.596;2023-02-26T08:16:50;4.20;;;1.90;;
1721;SDS011;858;53.190;8.596;2023-02-26T08:19:17;4.00;;;2.15;;
1721;SDS011;858;53.190;8.596;2023-02-26T08:21:43;4.38;;;1.90;;
1721;SDS011;858;53.190;8.596;2023-02-26T08:24:10;3.90;;;2.20;;
1721;SDS011;858;53.190;8.596;2023-02-26T08:26:37;4.55;;;2.33;;
1721;SDS011;858;53.190;8.596;2023-02-26T08:29:04;7.43;;;2.67;;
1721;SDS011;858;53.190;8.596;2023-02-26T08:31:32;5.13;;;1.80;;
1721;SDS011;858;53.190;8.596;2023-02-26T08:33:58;5.75;;;2.10;;
1721;SDS011;858;53.190;8.596;2023-02-26T08:36:25;5.40;;;1.95;;
1721;SDS011;858;53.190;8.596;2023-02-26T08:38:52;6.75;;;2.60;;
1721;SDS011;858;53.190;8.596;2023-02-26T08:41:18;4.00;;;1.75;;
1721;SDS011;858;53.190;8.596;2023-02-26T08:43:46;5.57;;;2.10;;
1721;SDS011;858;53.190;8.596;2023-02-26T08:46:12;2.50;;;1.97;;
1721;SDS011;858;53.190;8.596;2023-02-26T08:48:40;4.32;;;1.90;;
1721;SDS011;858;53.190;8.596;2023-02-26T08:51:06;3.93;;;1.40;;
1721;SDS011;858;53.190;8.596;2023-02-26T08:53:33;3.97;;;1.50;;
1721;SDS011;858;53.190;8.596;2023-02-26T08:55:59;2.60;;;1.80;;
1721;SDS011;858;53.190;8.596;2023-02-26T08:58:26;2.80;;;1.50;;
1721;SDS011;858;53.190;8.596;2023-02-26T09:00:52;2.88;;;1.10;;
1721;SDS011;858;53.190;8.596;2023-02-26T09:03:19;3.30;;;1.60;;
1721;SDS011;858;53.190;8.596;2023-02-26T09:05:46;3.50;;;1.30;;
1721;SDS011;858;53.190;8.596;2023-02-26T09:08:13;3.80;;;1.80;;
1721;SDS011;858;53.190;8.596;2023-02-26T09:10:40;3.03;;;1.30;;
1721;SDS011;858;53.190;8.596;2023-02-26T09:13:07;3.42;;;1.20;;
1721;SDS011;858;53.190;8.596;2023-02-26T09:15:34;2.80;;;1.17;;
1721;SDS011;858;53.190;8.596;2023-02-26T09:18:00;3.08;;;1.38;;
1721;SDS011;858;53.190;8.596;2023-02-26T09:20:26;4.70;;;1.70;;
1721;SDS011;858;53.190;8.596;2023-02-26T09:22:54;2.88;;;1.20;;
1721;SDS011;858;53.190;8.596;2023-02-26T09:25:21;2.60;;;1.20;;
1721;SDS011;858;53.190;8.596;2023-02-26T09:27:49;2.95;;;1.20;;
1721;SDS011;858;53.190;8.596;2023-02-26T09:30:16;3.83;;;1.40;;
1721;SDS011;858;53.190;8.596;2023-02-26T09:32:42;3.63;;;1.60;;
1721;SDS011;858;53.190;8.596;2023-02-26T09:35:08;2.90;;;1.27;;
1721;SDS011;858;53.190;8.596;2023-02-26T09:37:35;2.28;;;0.90;;
1721;SDS011;858;53.190;8.596;2023-02-26T09:40:04;3.38;;;1.30;;
1721;SDS011;858;53.190;8.596;2023-02-26T09:42:36;2.80;;;1.27;;
1721;SDS011;858;53.190;8.596;2023-02-26T09:45:09;4.00;;;1.60;;
1721;SDS011;858;53.190;8.596;2023-02-26T09:47:38;1.50;;;1.00;;
1721;SDS011;858;53.190;8.596;2023-02-26T09:50:08;5.75;;;1.30;;
1721;SDS011;858;53.190;8.596;2023-02-26T09:52:39;4.20;;;1.50;;
1721;SDS011;858;53.190;8.596;2023-02-26T09:55:11;3.17;;;1.40;;
1721;SDS011;858;53.190;8.596;2023-02-26T09:57:39;3.00;;;1.23;;
1721;SDS011;858;53.190;8.596;2023-02-26T10:00:15;2.88;;;1.50;;
1721;SDS011;858;53.190;8.596;2023-02-26T10:02:44;2.40;;;1.10;;
1721;SDS011;858;53.190;8.596;2023-02-26T10:05:16;6.28;;;1.30;;
1721;SDS011;858;53.190;8.596;2023-02-26T10:07:44;2.20;;;0.90;;
1721;SDS011;858;53.190;8.596;2023-02-26T10:10:16;5.90;;;1.60;;
1721;SDS011;858;53.190;8.596;2023-02-26T10:12:44;1.60;;;0.95;;
1721;SDS011;858;53.190;8.596;2023-02-26T10:15:12;3.75;;;1.60;;
1721;SDS011;858;53.190;8.596;2023-02-26T10:17:41;4.07;;;1.67;;
1721;SDS011;858;53.190;8.596;2023-02-26T10:20:13;2.30;;;1.20;;
1721;SDS011;858;53.190;8.596;2023-02-26T10:22:41;4.00;;;1.20;;
1721;SDS011;858;53.190;8.596;2023-02-26T10:25:11;1.38;;;0.93;;
1721;SDS011;858;53.190;8.596;2023-02-26T10:27:44;4.75;;;1.42;;
1721;SDS011;858;53.190;8.596;2023-02-26T10:30:15;2.10;;;1.00;;
1721;SDS011;858;53.190;8.596;2023-02-26T10:32:47;5.00;;;1.00;;
1721;SDS011;858;53.190;8.596;2023-02-26T10:35:15;4.43;;;1.30;;
1721;SDS011;858;53.190;8.596;2023-02-26T10:37:43;1.90;;;1.30;;
1721;SDS011;858;53.190;8.596;2023-02-26T10:40:12;3.40;;;1.13;;
1721;SDS011;858;53.190;8.596;2023-02-26T10:42:41;1.10;;;0.73;;
1721;SDS011;858;53.190;8.596;2023-02-26T10:45:14;2.20;;;0.80;;
1721;SDS011;858;53.190;8.596;2023-02-26T10:47:43;2.80;;;1.00;;
1721;SDS011;858;53.190;8.596;2023-02-26T10:50:12;2.90;;;0.80;;
1721;SDS011;858;53.190;8.596;2023-02-26T10:52:39;2.30;;;0.80;;
1721;SDS011;858;53.190;8.596;2023-02-26T10:55:15;2.67;;;0.88;;
1721;SDS011;858;53.190;8.596;2023-02-26T10:57:46;1.50;;;0.80;;
1721;SDS011;858;53.190;8.596;2023-02-26T11:00:16;1.98;;;0.90;;
1721;SDS011;858;53.190;8.596;2023-02-26T11:02:44;2.53;;;1.17;;
1721;SDS011;858;53.190;8.596;2023-02-26T11:05:12;2.92;;;0.90;;
1721;SDS011;858;53.190;8.596;2023-02-26T11:07:40;1.95;;;0.95;;
1721;SDS011;858;53.190;8.596;2023-02-26T11:10:11;1.83;;;1.10;;
1721;SDS011;858;53.190;8.596;2023-02-26T11:12:39;4.20;;;1.40;;
1721;SDS011;858;53.190;8.596;2023-02-26T11:15:11;2.70;;;1.02;;
1721;SDS011;858;53.190;8.596;2023-02-26T11:17:39;2.85;;;1.10;;
1721;SDS011;858;53.190;8.596;2023-02-26T11:20:12;3.35;;;1.10;;
1721;SDS011;858;53.190;8.596;2023-02-26T11:22:42;2.60;;;1.10;;
1721;SDS011;858;53.190;8.596;2023-02-26T11:25:12;1.25;;;0.80;;
1721;SDS011;858;53.190;8.596;2023-02-26T11:27:39;1.27;;;0.90;;
1721;SDS011;858;53.190;8.596;2023-02-26T11:30:06;3.50;;;0.80;;
1721;SDS011;858;53.190;8.596;2023-02-26T11:32:42;3.78;;;1.08;;
1721;SDS011;858;53.190;8.596;2023-02-26T11:35:12;2.47;;;1.02;;
1721;SDS011;858;53.190;8.596;2023-02-26T11:37:39;3.50;;;1.00;;
1721;SDS011;858;53.190;8.596;2023-02-26T11:40:13;2.40;;;0.90;;
1721;SDS011;858;53.190;8.596;2023-02-26T11:42:40;1.88;;;1.10;;
1721;SDS011;858;53.190;8.596;2023-02-26T11:45:11;1.40;;;0.90;;
1721;SDS011;858;53.190;8.596;2023-02-26T11:47:39;1.25;;;0.80;;
1721;SDS011;858;53.190;8.596;2023-02-26T11:50:13;2.15;;;1.00;;
1721;SDS011;858;53.190;8.596;2023-02-26T11:52:41;1.40;;;0.80;;
1721;SDS011;858;53.190;8.596;2023-02-26T11:55:16;4.00;;;1.17;;
1721;SDS011;858;53.190;8.596;2023-02-26T11:57:43;3.20;;;0.90;;
1721;SDS011;858;53.190;8.596;2023-02-26T12:00:15;2.35;;;1.10;;
1721;SDS011;858;53.190;8.596;2023-02-26T12:02:43;2.80;;;1.20;;
1721;SDS011;858;53.190;8.596;2023-02-26T12:05:12;2.25;;;1.00;;
1721;SDS011;858;53.190;8.596;2023-02-26T12:07:40;3.88;;;1.38;;
1721;SDS011;858;53.190;8.596;2023-02-26T12:10:09;2.03;;;0.90;;
1721;SDS011;858;53.190;8.596;2023-02-26T12:12:42;2.95;;;0.80;;
1721;SDS011;858;53.190;8.596;2023-02-26T12:15:19;2.90;;;0.90;;
1721;SDS011;858;53.190;8.596;2023-02-26T12:17:53;2.35;;;1.20;;
1721;SDS011;858;53.190;8.596;2023-02-26T12:20:25;3.50;;;0.90;;
1721;SDS011;858;53.190;8.596;2023-02-26T12:22:58;3.80;;;1.20;;
1721;SDS011;858;53.190;8.596;2023-02-26T12:25:31;1.33;;;0.70;;
1721;SDS011;858;53.190;8.596;2023-02-26T12:28:06;3.33;;;0.90;;
1721;SDS011;858;53.190;8.596;2023-02-26T12:30:41;3.25;;;0.80;;
1721;SDS011;858;53.190;8.596;2023-02-26T12:33:13;5.00;;;1.30;;
1721;SDS011;858;53.190;8.596;2023-02-26T12:35:44;3.47;;;1.10;;
1721;SDS011;858;53.190;8.596;2023-02-26T12:38:18;2.70;;;1.10;;
1721;SDS011;858;53.190;8.596;2023-02-26T12:40:49;4.55;;;1.00;;
1721;SDS011;858;53.190;8.596;2023-02-26T12:43:22;2.00;;;0.80;;
1721;SDS011;858;53.190;8.596;2023-02-26T12:45:53;1.45;;;0.70;;
1721;SDS011;858;53.190;8.596;2023-02-26T12:51:13;3.10;;;1.00;;
1721;SDS011;858;53.190;8.596;2023-02-26T12:53:44;2.10;;;0.80;;
1721;SDS011;858;53.190;8.596;2023-02-26T12:59:22;3.90;;;0.95;;
1721;SDS011;858;53.190;8.596;2023-02-26T13:02:04;1.50;;;0.80;;
1721;SDS011;858;53.190;8.596;2023-02-26T13:04:43;1.60;;;0.80;;
1721;SDS011;858;53.190;8.596;2023-02-26T13:10:05;2.30;;;1.00;;
1721;SDS011;858;53.190;8.596;2023-02-26T13:12:36;2.35;;;0.70;;
1721;SDS011;858;53.190;8.596;2023-02-26T13:15:13;2.42;;;1.00;;
1721;SDS011;858;53.190;8.596;2023-02-26T13:17:46;2.35;;;1.20;;
1721;SDS011;858;53.190;8.596;2023-02-26T13:20:17;4.28;;;1.00;;
1721;SDS011;858;53.190;8.596;2023-02-26T13:22:46;4.00;;;1.25;;
1721;SDS011;858;53.190;8.596;2023-02-26T13:25:17;2.75;;;1.10;;
1721;SDS011;858;53.190;8.596;2023-02-26T13:27:45;2.53;;;1.20;;
1721;SDS011;858;53.190;8.596;2023-02-26T13:30:16;3.70;;;0.90;;
1721;SDS011;858;53.190;8.596;2023-02-26T13:32:44;1.92;;;1.00;;
1721;SDS011;858;53.190;8.596;2023-02-26T13:35:18;2.50;;;0.90;;
1721;SDS011;858;53.190;8.596;2023-02-26T13:37:47;1.38;;;0.80;;
1721;SDS011;858;53.190;8.596;2023-02-26T13:40:23;2.00;;;0.90;;
1721;SDS011;858;53.190;8.596;2023-02-26T13:42:52;4.15;;;1.40;;
1721;SDS011;858;53.190;8.596;2023-02-26T13:45:30;2.83;;;0.90;;
1721;SDS011;858;53.190;8.596;2023-02-26T13:48:04;2.75;;;1.13;;
1721;SDS011;858;53.190;8.596;2023-02-26T13:50:35;1.93;;;1.10;;
1721;SDS011;858;53.190;8.596;2023-02-26T13:55:48;1.83;;;1.40;;
1721;SDS011;858;53.190;8.596;2023-02-26T13:58:15;2.80;;;1.10;;
1721;SDS011;858;53.190;8.596;2023-02-26T14:00:44;1.75;;;1.02;;
1721;SDS011;858;53.190;8.596;2023-02-26T14:03:12;2.42;;;0.90;;
1721;SDS011;858;53.190;8.596;2023-02-26T14:05:56;1.00;;;0.77;;
1721;SDS011;858;53.190;8.596;2023-02-26T14:08:41;2.20;;;1.10;;
1721;SDS011;858;53.190;8.596;2023-02-26T14:14:04;0.82;;;0.80;;
1721;SDS011;858;53.190;8.596;2023-02-26T14:16:32;1.17;;;0.73;;
1721;SDS011;858;53.190;8.596;2023-02-26T14:19:02;2.67;;;1.00;;
1721;SDS011;858;53.190;8.596;2023-02-26T14:21:36;2.15;;;0.90;;
1721;SDS011;858;53.190;8.596;2023-02-26T14:24:04;1.52;;;1.00;;
1721;SDS011;858;53.190;8.596;2023-02-26T14:26:33;1.80;;;0.95;;
1721;SDS011;858;53.190;8.596;2023-02-26T14:29:12;2.00;;;0.68;;
1721;SDS011;858;53.190;8.596;2023-02-26T14:31:50;1.77;;;0.90;;
1721;SDS011;858;53.190;8.596;2023-02-26T14:34:20;1.77;;;0.88;;
1721;SDS011;858;53.190;8.596;2023-02-26T14:36:48;2.50;;;0.90;;
1721;SDS011;858;53.190;8.596;2023-02-26T14:39:27;1.90;;;1.17;;
1721;SDS011;858;53.190;8.596;2023-02-26T14:42:04;1.10;;;1.00;;
1721;SDS011;858;53.190;8.596;2023-02-26T14:44:35;2.35;;;1.20;;
1721;SDS011;858;53.190;8.596;2023-02-26T14:47:02;3.65;;;1.20;;
1721;SDS011;858;53.190;8.596;2023-02-26T14:49:29;2.60;;;1.40;;
1721;SDS011;858;53.190;8.596;2023-02-26T14:52:04;3.53;;;1.50;;
1721;SDS011;858;53.190;8.596;2023-02-26T14:54:37;3.30;;;1.50;;
1721;SDS011;858;53.190;8.596;2023-02-26T14:57:12;4.65;;;2.05;;
1721;SDS011;858;53.190;8.596;2023-02-26T14:59:45;2.30;;;1.40;;
1721;SDS011;858;53.190;8.596;2023-02-26T15:02:20;1.48;;;1.15;;
1721;SDS011;858;53.190;8.596;2023-02-26T15:07:33;3.58;;;2.17;;
1721;SDS011;858;53.190;8.596;2023-02-26T15:10:07;3.55;;;1.92;;
1721;SDS011;858;53.190;8.596;2023-02-26T15:12:39;1.20;;;1.10;;
1721;SDS011;858;53.190;8.596;2023-02-26T15:15:23;2.28;;;1.25;;
1721;SDS011;858;53.190;8.596;2023-02-26T15:17:57;2.85;;;1.40;;
1721;SDS011;858;53.190;8.596;2023-02-26T15:20:28;3.00;;;1.00;;
1721;SDS011;858;53.190;8.596;2023-02-26T15:23:02;2.70;;;1.00;;
1721;SDS011;858;53.190;8.596;2023-02-26T15:25:31;1.42;;;1.33;;
1721;SDS011;858;53.190;8.596;2023-02-26T15:27:59;1.90;;;1.30;;
1721;SDS011;858;53.190;8.596;2023-02-26T15:30:27;1.98;;;1.10;;
1721;SDS011;858;53.190;8.596;2023-02-26T15:32:55;2.92;;;1.30;;
1721;SDS011;858;53.190;8.596;2023-02-26T15:35:22;2.70;;;1.25;;
1721;SDS011;858;53.190;8.596;2023-02-26T15:37:49;2.95;;;1.30;;
1721;SDS011;858;53.190;8.596;2023-02-26T15:40:17;2.28;;;1.40;;
1721;SDS011;858;53.190;8.596;2023-02-26T15:42:44;3.83;;;1.80;;
1721;SDS011;858;53.190;8.596;2023-02-26T15:45:15;2.20;;;1.70;;
1721;SDS011;858;53.190;8.596;2023-02-26T15:47:49;2.75;;;1.27;;
1721;SDS011;858;53.190;8.596;2023-02-26T15:50:17;2.65;;;1.40;;
1721;SDS011;858;53.190;8.596;2023-02-26T15:52:43;2.65;;;1.60;;
1721;SDS011;858;53.190;8.596;2023-02-26T15:55:13;3.45;;;1.50;;
1721;SDS011;858;53.190;8.596;2023-02-26T15:57:40;2.65;;;1.40;;
1721;SDS011;858;53.190;8.596;2023-02-26T16:00:08;3.05;;;1.30;;
1721;SDS011;858;53.190;8.596;2023-02-26T16:02:35;1.70;;;1.60;;